Snover, Michigan
Current Conditions -  °F | °C
As of 2:55 PM on Sunday 21 Dec 2014 (Local Time) from KBAX Reporting Station
Overcast Overcast  
Wind Chill: 24°   Ceiling: 2500
Heat Index: 32°   Visibility: 10mi
Dew Point: 26°   Wind: 9mph
Humidity: 79%   Direction: 180°S
Pressure: 30.22"   Gusts: NA
Location:  43.46°N, 82.97°W
Report Text: KBAX 211955Z AUTO 18008KT 10SM OVC025 00/M03 A3022 RMK AO2 T10011033
Loading
Personal Weather Stations






























Interactive Weather Map New forecast layout! Learn more

10-Day Weather Forecast

Advertisements
Track Severe Weather on mobile